DLH78M ESGG-ESSA
Flight info
| Callsign | DLH78M |
|---|---|
| Flight time | N/A |
| Altitude | 31000 |
| Route | LABAN N873 ARS T317 ELTOK |
| Aircraft | A320/M-SDE3FGHIRWY/LB1 |
Departure
| Time | 2026-04-30 20:00 |
|---|---|
| Airport | Göteborg Landvetter Airport (ESGG) |
Arrival
| Time | N/A |
|---|---|
| Airport | Stockholm-Arlanda Airport (ESSA) |
| Time | Latitude | Longitude | Altitude | Speed | Heading |
|---|---|---|---|---|---|
| 2026-04-30 19:31 | 57.66668 | 12.29221 | 516 ft | 0 kts | 116° |
| 2026-04-30 19:50 | 57.66673 | 12.29199 | 516 ft | 4 kts | 113° |
| 2026-04-30 19:51 | 57.66682 | 12.29152 | 516 ft | 4 kts | 102° |
| 2026-04-30 19:51 | 57.66685 | 12.29103 | 516 ft | 4 kts | 81° |
| 2026-04-30 19:51 | 57.66676 | 12.29062 | 516 ft | 3 kts | 32° |
| 2026-04-30 19:51 | 57.66672 | 12.29057 | 516 ft | 0 kts | 26° |
| 2026-04-30 19:54 | 57.66695 | 12.29078 | 516 ft | 8 kts | 26° |
| 2026-04-30 19:54 | 57.66749 | 12.29121 | 516 ft | 8 kts | 10° |
| 2026-04-30 19:54 | 57.66783 | 12.29071 | 516 ft | 6 kts | 297° |
| 2026-04-30 19:55 | 57.66808 | 12.28981 | 516 ft | 9 kts | 290° |
| 2026-04-30 19:55 | 57.66851 | 12.28870 | 513 ft | 14 kts | 336° |
| 2026-04-30 19:55 | 57.66940 | 12.28923 | 514 ft | 14 kts | 26° |
| 2026-04-30 19:55 | 57.67026 | 12.29003 | 514 ft | 14 kts | 26° |
| 2026-04-30 19:56 | 57.67111 | 12.29080 | 514 ft | 13 kts | 25° |
| 2026-04-30 19:56 | 57.67197 | 12.29157 | 514 ft | 14 kts | 26° |
| 2026-04-30 19:56 | 57.67294 | 12.29246 | 515 ft | 16 kts | 26° |
| 2026-04-30 19:56 | 57.67399 | 12.29341 | 515 ft | 14 kts | 22° |
| 2026-04-30 19:57 | 57.67458 | 12.29308 | 516 ft | 7 kts | 294° |
| 2026-04-30 19:57 | 57.67461 | 12.29254 | 515 ft | 0 kts | 263° |
| 2026-04-30 19:58 | 57.67460 | 12.29228 | 515 ft | 5 kts | 265° |
| 2026-04-30 19:59 | 57.67452 | 12.29126 | 514 ft | 11 kts | 257° |
| 2026-04-30 19:59 | 57.67412 | 12.29011 | 515 ft | 12 kts | 226° |
| 2026-04-30 19:59 | 57.67365 | 12.28964 | 515 ft | 20 kts | 207° |
| 2026-04-30 20:00 | 57.66974 | 12.28606 | 516 ft | 99 kts | 206° |
| 2026-04-30 20:00 | 57.66178 | 12.27886 | 512 ft | 153 kts | 206° |
| 2026-04-30 20:00 | 57.65196 | 12.26987 | 1090 ft | 156 kts | 208° |
| 2026-04-30 20:00 | 57.64212 | 12.26111 | 1853 ft | 157 kts | 210° |
| 2026-04-30 20:01 | 57.61977 | 12.25130 | 2714 ft | 197 kts | 166° |
| 2026-04-30 20:01 | 57.60643 | 12.26143 | 3045 ft | 221 kts | 160° |
| 2026-04-30 20:01 | 57.59185 | 12.27318 | 3642 ft | 228 kts | 159° |
| 2026-04-30 20:02 | 57.56960 | 12.31296 | 4979 ft | 237 kts | 102° |
| 2026-04-30 20:02 | 57.57010 | 12.34418 | 5389 ft | 253 kts | 70° |
| 2026-04-30 20:03 | 57.58372 | 12.40870 | 6826 ft | 274 kts | 65° |
| 2026-04-30 20:03 | 57.59094 | 12.44177 | 7720 ft | 277 kts | 65° |
| 2026-04-30 20:03 | 57.59817 | 12.47509 | 8568 ft | 281 kts | 66° |
| 2026-04-30 20:03 | 57.60548 | 12.50915 | 9447 ft | 285 kts | 66° |
| 2026-04-30 20:04 | 57.61287 | 12.54365 | 10318 ft | 288 kts | 65° |
| 2026-04-30 20:04 | 57.62281 | 12.57629 | 11085 ft | 291 kts | 52° |
| 2026-04-30 20:04 | 57.63692 | 12.60493 | 11426 ft | 311 kts | 38° |
| 2026-04-30 20:05 | 57.67448 | 12.65313 | 12356 ft | 339 kts | 33° |
| 2026-04-30 20:05 | 57.69361 | 12.67721 | 13086 ft | 343 kts | 33° |
| 2026-04-30 20:05 | 57.73328 | 12.72751 | 14548 ft | 350 kts | 33° |
| 2026-04-30 20:06 | 57.75342 | 12.75327 | 15243 ft | 353 kts | 33° |
| 2026-04-30 20:06 | 57.77371 | 12.77935 | 15916 ft | 355 kts | 33° |
| 2026-04-30 20:06 | 57.79405 | 12.80557 | 16602 ft | 358 kts | 33° |
| 2026-04-30 20:06 | 57.81475 | 12.83224 | 17284 ft | 361 kts | 33° |
| 2026-04-30 20:07 | 57.83544 | 12.85890 | 17946 ft | 364 kts | 33° |
| 2026-04-30 20:07 | 57.85633 | 12.88586 | 18637 ft | 366 kts | 32° |
| 2026-04-30 20:07 | 57.89815 | 12.93991 | 19839 ft | 370 kts | 32° |
| 2026-04-30 20:08 | 57.91939 | 12.96735 | 20437 ft | 372 kts | 32° |
| 2026-04-30 20:08 | 57.94081 | 12.99504 | 21029 ft | 374 kts | 32° |
| 2026-04-30 20:08 | 57.96231 | 13.02297 | 21620 ft | 377 kts | 32° |
| 2026-04-30 20:08 | 57.98382 | 13.05097 | 22213 ft | 379 kts | 32° |
| 2026-04-30 20:09 | 58.00562 | 13.07931 | 22777 ft | 382 kts | 32° |
| 2026-04-30 20:09 | 58.02747 | 13.10782 | 23336 ft | 384 kts | 32° |
| 2026-04-30 20:09 | 58.07164 | 13.16564 | 24333 ft | 389 kts | 32° |
| 2026-04-30 20:10 | 58.11634 | 13.22434 | 25212 ft | 393 kts | 32° |
| 2026-04-30 20:10 | 58.13886 | 13.25398 | 25630 ft | 395 kts | 32° |
| 2026-04-30 20:10 | 58.16123 | 13.28439 | 26038 ft | 398 kts | 37° |
| 2026-04-30 20:11 | 58.19970 | 13.36125 | 26827 ft | 405 kts | 46° |
| 2026-04-30 20:11 | 58.21811 | 13.40199 | 27221 ft | 407 kts | 46° |
| 2026-04-30 20:11 | 58.23663 | 13.44301 | 27612 ft | 409 kts | 46° |
| 2026-04-30 20:12 | 58.27349 | 13.52491 | 28360 ft | 413 kts | 46° |
| 2026-04-30 20:12 | 58.29218 | 13.56660 | 28716 ft | 415 kts | 46° |
| 2026-04-30 20:12 | 58.30309 | 13.59100 | 28940 ft | 416 kts | 46° |